Tropical Cyclones
[Index]
Main Index Home Page Stock Weather Photos Extreme Storms Discussion Storm News and Storm Chasing Reports Tropical Cyclones / Hurricanes / Typhoons Weather Data and Links Wild Fires / Bushfires Weather Observation Techniques Weather Picture Catalogue Tornado Pictures and Reports Stock Video Footage and DVDs for sale
Season 1967-1968 Tropical Cyclone FLORENCE Track Map
Season 1967-1968 Summaries: [BoM-AU] [JTWC-AU] [JTWC-SIO] [JTWC-SPAC] [JTWC-SH]
<<- Previous TC | JTWC 1967-1968 Season | Next TC ->>

click for intensity scale information  Lat/long Grid: Show Hide

 Date Labels: Show Hide

Joint Typhoon Warning Centre Cyclone Data

Name: FLORENCE
Number: 674 / 6829

29 Feb 1968 00:00 UTC to 08 Mar 1968 00:00 UTC

    date/time    lat    long     hPa   cat  kts
1968-02-29 00   13.8   166.6                              
1968-02-29 06   14.1   165.6                              
1968-02-29 12   14.5   164.6                              
1968-02-29 18   15.1   163.8                              
1968-03-01 00   15.7   163.0                              
1968-03-01 06   16.0   162.4                              
1968-03-01 12   16.3   162.0                              
1968-03-01 18   16.8   161.9                              
1968-03-02 00   17.2   162.5                              
1968-03-02 06   17.6   163.5                              
1968-03-02 12   18.0   164.6                              
1968-03-02 18   18.4   165.6                              
1968-03-03 00   18.8   166.6                              
1968-03-03 06   19.3   168.0                              
1968-03-03 12   20.0   169.4                              
1968-03-03 18   21.0   170.6                              
1968-03-04 00   22.0   171.6                              
1968-03-04 06   22.6   172.3                              
1968-03-04 12   22.9   173.0                              
1968-03-04 18   23.0   173.6                              
1968-03-05 00   23.2   174.2                              
1968-03-05 06   23.6   174.6                              
1968-03-05 12   24.0   174.7                              
1968-03-05 18   24.3   174.8                              
1968-03-06 00   24.7   174.5                              
1968-03-06 06   25.8   173.9                              
1968-03-06 12   27.3   173.2                              
1968-03-06 18   28.1   172.6                              
1968-03-07 00   29.4   171.9                              
1968-03-07 06   31.6   170.8                              
1968-03-07 12   34.0   169.5                              
1968-03-07 18   36.3   168.6                              
1968-03-08 00   38.7   168.0                              
Winds are 1-min average.

Tropical cyclone tracks developed by Michael Bath using data from the Joint Typhoon Warning Centre Best Tracks and Google Maps.


[Australian Severe Weather index] [Copyright Notice] [Email Contacts] [Search This Site] [Privacy Policy]
Document: tropical_cyclone_florence.htm Updated: 18 September 2016